St Paul Island Airport
PASN : now visible

Airfield :











YOU CAN JOIN US ON...

 
LOGIN :

Register | Disclaimer

   EN    FR    IT 

 









Legend :    VFR   Marginal VFR   IFR   Intensive IFR   Very Intensive IFR
Visi :
Ceiling :
>= 8 km
>= 3000ft
5 to 8 km
1000 to 3000 ft
1500m to 5 km
500 to 1000 ft
800 to 1500m
200 to 500 ft
< 800m
< 200 ft
Symbols :   Thunderstorms  Fog  Heavy snow  Heavy precipitations  Wind > 20 kt






- Airport Elevation : 63 ft
- IATA code : SNP


PASN - St Paul Island

CURRENT METAR :
  • 191353Z AUTO 01012KT 10SM OVC027 07/02 A2980 RMK AO2 SLP091 T00670022 TSNO

EXPIRED METARs :
  • 191253Z AUTO 02011KT 10SM OVC024 06/04 A2980 RMK AO2 RAE08 SLP092 P0001 T00610039 TSNO
  • 191153Z AUTO 02014G20KT 4SM -RA BR FEW013 BKN024 06/04 A2980 RMK AO2 RAB12E21B50 SLP092 P0000 60000 T00610044 10072 20056 51004 TSNO
  • 191143Z AUTO 02010KT 10SM FEW019 SCT024 06/04 A2980 RMK AO2 RAB12E21 P0000 T00560039 TSNO

TAF PASN
Valid from the 19 at 12:00 until the 20 at 12:00 UTC


191120Z 1912/2012 03015KT P6SM BKN025 OVC035
FM191500 36012KT P6SM OVC025
FM200000 32015KT P6SM OVC025
PAZA FIR / North America



MET'MAP, your aeronautical weather chart ! - Copyright ORBIFLY December 2007 - Disclaimer

ORBIFLY MET'MAP TEAM :

Programming & Development : Alexandra Zaïnal
Concept & original design : Baudouin d'Aumeries
Assistance for programming : Marc-Olivier Méhu
Technical & hardware support : Manuel Goepfert

Contact : metmap@orbifly.com




SOURCES & CREDITS :

   NOAA       Earth
Advisory